Gravel Hill, Arkansas
Current Conditions -  °F | °C
As of 5:56 AM on Thursday 27 Nov 2014 (Local Time) from KSRC Reporting Station
Overcast Overcast  
Wind Chill: 35°   Ceiling: 3400
Heat Index: 35°   Visibility: 10mi
Dew Point: 26°   Wind: 3mph
Humidity: 70%   Direction: 300°WNW
Pressure: 30.47"   Gusts: NA
Location:  35.2212°N, 92.068°W
Report Text: KSRC 271156Z AUTO 30003KT 10SM OVC034 02/M03 A3047 RMK AO2 SLP325 T00171033 10050 20017 53031 FZRANO TSNO
Loading
Personal Weather Stations






























Interactive Weather Map New forecast layout! Learn more

10-Day Weather Forecast

Advertisements
Track Severe Weather on mobile